Time;durP1;ratioP1;P1;durP2;ratioP2;P2;SDS_P1;SDS_P2;PMS_P1;PMS_P2;Temp;Humidity;BMP_temperature;BMP_pressure;BME280_temperature;BME280_humidity;BME280_pressure;Samples;Min_cycle;Max_cycle;Signal;HPM_P1;HPM_P2
2023/09/28 00:01:37;;;;;;;2.67;1.30;;;;;;;;;;8249359;28;20659;-61
2023/09/28 00:05:38;;;;;;;1.55;1.30;;;;;;;;;;8247085;28;20082;-61
2023/09/28 00:09:38;;;;;;;1.50;1.40;;;;;;;;;;8254460;28;20089;-60
2023/09/28 00:13:38;;;;;;;3.38;1.42;;;;;;;;;;8249182;28;20036;-61
2023/09/28 00:17:39;;;;;;;1.70;1.58;;;;;;;;;;8250857;28;20758;-60
2023/09/28 00:21:39;;;;;;;1.50;1.30;;;;;;;;;;8248906;28;20105;-61
2023/09/28 00:25:39;;;;;;;2.67;1.53;;;;;;;;;;8249421;28;20083;-61
2023/09/28 00:29:39;;;;;;;3.70;1.48;;;;;;;;;;8247024;28;20037;-61
2023/09/28 00:33:42;;;;;;;3.70;1.58;;;;;;;;;;8249245;28;20076;-61
2023/09/28 00:37:43;;;;;;;1.45;1.27;;;;;;;;;;8249735;28;21324;-60
2023/09/28 00:41:44;;;;;;;1.40;1.30;;;;;;;;;;8251434;28;20029;-61
2023/09/28 00:45:44;;;;;;;4.20;1.30;;;;;;;;;;8249577;28;20045;-61
2023/09/28 00:49:45;;;;;;;1.50;1.40;;;;;;;;;;8246393;28;20096;-62
2023/09/28 00:53:45;;;;;;;2.33;1.40;;;;;;;;;;8251223;28;20031;-61
2023/09/28 00:57:46;;;;;;;3.43;1.50;;;;;;;;;;8248307;28;20094;-61
2023/09/28 01:01:47;;;;;;;2.45;1.40;;;;;;;;;;8245982;28;20131;-60
2023/09/28 01:05:48;;;;;;;1.67;1.50;;;;;;;;;;8245895;28;20095;-59
2023/09/28 01:09:49;;;;;;;1.38;1.27;;;;;;;;;;8245708;28;20038;-60
2023/09/28 01:13:49;;;;;;;1.92;1.38;;;;;;;;;;8240785;28;20149;-60
2023/09/28 01:17:49;;;;;;;5.67;1.40;;;;;;;;;;8243927;28;20025;-60
2023/09/28 01:21:51;;;;;;;1.50;1.30;;;;;;;;;;8244450;28;20107;-60
2023/09/28 01:25:52;;;;;;;2.10;1.30;;;;;;;;;;8246892;28;20052;-60
2023/09/28 01:29:52;;;;;;;1.60;1.48;;;;;;;;;;8244000;28;20037;-62
2023/09/28 01:33:52;;;;;;;6.27;1.50;;;;;;;;;;8250323;28;20088;-61
2023/09/28 01:38:09;;;;;;;1.97;1.67;;;;;;;;;;8250300;28;20140;-61
2023/09/28 01:42:09;;;;;;;2.63;1.50;;;;;;;;;;8250854;28;20028;-61
2023/09/28 01:46:10;;;;;;;1.98;1.40;;;;;;;;;;8258316;28;20041;-60
2023/09/28 01:50:10;;;;;;;1.40;1.30;;;;;;;;;;8279755;28;20033;-61
2023/09/28 01:54:10;;;;;;;2.33;1.43;;;;;;;;;;8284079;28;20067;-60
2023/09/28 01:58:11;;;;;;;1.40;1.30;;;;;;;;;;8281169;28;20124;-60
2023/09/28 02:02:12;;;;;;;2.53;1.60;;;;;;;;;;8284869;28;20068;-60
2023/09/28 02:06:12;;;;;;;2.00;1.50;;;;;;;;;;8283950;28;20064;-61
2023/09/28 02:10:12;;;;;;;3.90;1.70;;;;;;;;;;8277843;28;20032;-62
2023/09/28 02:14:13;;;;;;;2.25;1.58;;;;;;;;;;8281826;28;20076;-61
2023/09/28 02:18:13;;;;;;;1.85;1.60;;;;;;;;;;8282011;28;20042;-60
2023/09/28 02:22:14;;;;;;;2.25;1.40;;;;;;;;;;8280088;28;20147;-61
2023/09/28 02:26:14;;;;;;;2.00;1.63;;;;;;;;;;8281876;28;20539;-61
2023/09/28 02:30:17;;;;;;;3.10;1.55;;;;;;;;;;8282042;28;20044;-60
2023/09/28 02:34:17;;;;;;;2.35;1.58;;;;;;;;;;8280668;28;20108;-61
2023/09/28 02:38:19;;;;;;;1.63;1.53;;;;;;;;;;8280814;28;20099;-61
2023/09/28 02:42:19;;;;;;;1.67;1.58;;;;;;;;;;8281638;28;20191;-61
2023/09/28 02:46:20;;;;;;;1.80;1.70;;;;;;;;;;8281784;28;20143;-62
2023/09/28 02:50:21;;;;;;;1.60;1.50;;;;;;;;;;8280751;28;20039;-63
2023/09/28 02:54:22;;;;;;;2.65;1.80;;;;;;;;;;8280952;28;20021;-62
2023/09/28 02:58:22;;;;;;;6.05;2.03;;;;;;;;;;8281992;28;20028;-60
2023/09/28 03:02:22;;;;;;;4.15;1.83;;;;;;;;;;8275465;28;20037;-61
2023/09/28 03:06:23;;;;;;;3.33;2.20;;;;;;;;;;8281145;28;20955;-60
2023/09/28 03:10:23;;;;;;;2.13;1.75;;;;;;;;;;8280349;28;20590;-61
2023/09/28 03:14:25;;;;;;;5.32;1.95;;;;;;;;;;8279560;28;20140;-61
2023/09/28 03:18:25;;;;;;;3.72;1.98;;;;;;;;;;8282548;28;20141;-61
2023/09/28 03:22:26;;;;;;;4.80;2.10;;;;;;;;;;8278549;28;20116;-61
2023/09/28 03:26:28;;;;;;;5.47;2.38;;;;;;;;;;8282503;28;20890;-60
2023/09/28 03:30:28;;;;;;;6.28;2.33;;;;;;;;;;8281445;28;20040;-61
2023/09/28 03:34:28;;;;;;;3.45;2.08;;;;;;;;;;8283112;28;20516;-61
2023/09/28 03:38:29;;;;;;;3.67;2.13;;;;;;;;;;8276381;28;20820;-60
2023/09/28 03:42:30;;;;;;;7.57;2.10;;;;;;;;;;8273507;28;20047;-61
2023/09/28 03:46:30;;;;;;;3.55;2.10;;;;;;;;;;8273685;28;20609;-60
2023/09/28 03:50:31;;;;;;;2.17;1.95;;;;;;;;;;8280831;28;20052;-61
2023/09/28 03:54:31;;;;;;;2.60;1.98;;;;;;;;;;8278199;28;20039;-60
2023/09/28 03:58:31;;;;;;;3.50;2.58;;;;;;;;;;8278162;28;20562;-61
2023/09/28 04:02:32;;;;;;;2.63;2.10;;;;;;;;;;8272519;28;20041;-61
2023/09/28 04:06:32;;;;;;;3.25;2.10;;;;;;;;;;8281536;28;20022;-60
2023/09/28 04:10:33;;;;;;;4.57;2.25;;;;;;;;;;8275323;28;20033;-61
2023/09/28 04:14:33;;;;;;;4.75;1.90;;;;;;;;;;8284494;28;20025;-62
2023/09/28 04:18:34;;;;;;;2.60;2.33;;;;;;;;;;8284732;28;20040;-62
2023/09/28 04:22:34;;;;;;;3.10;2.65;;;;;;;;;;8281824;28;20520;-60
2023/09/28 04:26:34;;;;;;;5.85;2.78;;;;;;;;;;8280764;28;20036;-60
2023/09/28 04:30:36;;;;;;;4.05;2.80;;;;;;;;;;8275494;28;20053;-62
2023/09/28 04:34:36;;;;;;;4.18;2.60;;;;;;;;;;8281312;28;22811;-62
2023/09/28 04:38:36;;;;;;;3.17;2.50;;;;;;;;;;8289461;28;20172;-61
2023/09/28 04:42:38;;;;;;;7.68;2.80;;;;;;;;;;8279274;28;21634;-60
2023/09/28 04:46:38;;;;;;;5.47;2.75;;;;;;;;;;8278791;28;20538;-60
2023/09/28 04:50:39;;;;;;;4.50;2.50;;;;;;;;;;8284725;28;20033;-62
2023/09/28 04:54:39;;;;;;;5.85;3.10;;;;;;;;;;8285619;28;20025;-60
2023/09/28 04:58:39;;;;;;;6.10;2.65;;;;;;;;;;8282778;28;20025;-61
2023/09/28 05:02:40;;;;;;;4.72;2.50;;;;;;;;;;8284273;28;20052;-61
2023/09/28 05:06:40;;;;;;;5.50;2.50;;;;;;;;;;8282437;28;20064;-61
2023/09/28 05:10:41;;;;;;;9.32;2.50;;;;;;;;;;8281481;28;20036;-60
2023/09/28 05:14:41;;;;;;;11.37;2.70;;;;;;;;;;8280231;28;20055;-60
2023/09/28 05:18:42;;;;;;;3.67;3.10;;;;;;;;;;8275138;28;20032;-61
2023/09/28 05:22:43;;;;;;;5.35;3.35;;;;;;;;;;8281837;28;20027;-60
2023/09/28 05:26:43;;;;;;;4.90;2.95;;;;;;;;;;8280323;28;20029;-61
2023/09/28 05:30:43;;;;;;;3.92;2.70;;;;;;;;;;8281834;28;20040;-61
2023/09/28 05:34:44;;;;;;;4.93;2.87;;;;;;;;;;8287723;28;20056;-61
2023/09/28 05:38:44;;;;;;;3.03;2.40;;;;;;;;;;8286323;28;20329;-61
2023/09/28 05:42:44;;;;;;;4.15;2.80;;;;;;;;;;8284944;28;20053;-61
2023/09/28 05:46:46;;;;;;;4.72;2.40;;;;;;;;;;8285892;28;20103;-62
2023/09/28 05:50:46;;;;;;;2.75;2.38;;;;;;;;;;8287132;28;20025;-61
2023/09/28 05:54:46;;;;;;;3.88;2.83;;;;;;;;;;8284762;28;20035;-61
2023/09/28 05:58:47;;;;;;;3.85;2.67;;;;;;;;;;8285623;28;20119;-63
2023/09/28 06:02:47;;;;;;;5.37;2.90;;;;;;;;;;8283649;28;20132;-61
2023/09/28 06:06:50;;;;;;;6.23;2.80;;;;;;;;;;8278604;28;20382;-61
2023/09/28 06:10:50;;;;;;;3.33;2.60;;;;;;;;;;8280095;28;20263;-61
2023/09/28 06:14:50;;;;;;;5.63;2.60;;;;;;;;;;8279519;28;20078;-61
2023/09/28 06:18:51;;;;;;;5.87;2.70;;;;;;;;;;8276822;28;20037;-62
2023/09/28 06:22:54;;;;;;;5.22;2.55;;;;;;;;;;8279170;28;20328;-61
2023/09/28 06:26:54;;;;;;;4.38;2.28;;;;;;;;;;8276904;28;20116;-61
2023/09/28 06:30:55;;;;;;;5.35;2.50;;;;;;;;;;8276866;28;20071;-61
2023/09/28 06:34:55;;;;;;;9.60;2.60;;;;;;;;;;8278399;28;20517;-61
2023/09/28 06:38:55;;;;;;;7.17;2.53;;;;;;;;;;8277586;28;20607;-62
2023/09/28 06:42:56;;;;;;;6.25;2.67;;;;;;;;;;8280819;28;20029;-62
2023/09/28 06:46:57;;;;;;;7.00;2.25;;;;;;;;;;8278012;28;20517;-62
2023/09/28 06:50:57;;;;;;;8.65;2.17;;;;;;;;;;8281571;28;20037;-62
2023/09/28 06:54:57;;;;;;;3.28;2.10;;;;;;;;;;8271320;28;20044;-63
2023/09/28 06:58:57;;;;;;;5.50;2.33;;;;;;;;;;8278799;28;20053;-62
2023/09/28 07:02:58;;;;;;;10.85;2.60;;;;;;;;;;8274449;28;20207;-62
2023/09/28 07:06:58;;;;;;;2.75;2.17;;;;;;;;;;8280094;28;20033;-62
2023/09/28 07:10:58;;;;;;;5.20;2.78;;;;;;;;;;8277149;28;20352;-62
2023/09/28 07:14:59;;;;;;;5.18;2.63;;;;;;;;;;8276584;28;20025;-62
2023/09/28 07:19:03;;;;;;;9.70;2.60;;;;;;;;;;8276593;28;20037;-62
2023/09/28 07:23:03;;;;;;;5.88;2.55;;;;;;;;;;8276139;28;20661;-62
2023/09/28 07:27:03;;;;;;;4.18;2.35;;;;;;;;;;8277572;28;20029;-62
2023/09/28 07:31:04;;;;;;;7.57;2.40;;;;;;;;;;8274115;28;20044;-62
2023/09/28 07:35:04;;;;;;;3.75;2.15;;;;;;;;;;8279170;28;20021;-62
2023/09/28 07:39:05;;;;;;;3.22;2.00;;;;;;;;;;8278736;28;20047;-62
2023/09/28 07:43:05;;;;;;;3.30;1.98;;;;;;;;;;8274316;28;20487;-66
2023/09/28 07:47:06;;;;;;;2.70;2.13;;;;;;;;;;8276852;28;20892;-62
2023/09/28 07:51:06;;;;;;;6.85;1.85;;;;;;;;;;8275596;28;20072;-62
2023/09/28 07:55:07;;;;;;;5.68;2.10;;;;;;;;;;8273470;28;20029;-66
2023/09/28 07:59:07;;;;;;;4.17;2.80;;;;;;;;;;8274458;28;20087;-62
2023/09/28 08:03:08;;;;;;;10.05;3.10;;;;;;;;;;8271885;28;20044;-62
2023/09/28 08:07:08;;;;;;;10.00;3.17;;;;;;;;;;8276878;28;20036;-63
2023/09/28 08:11:08;;;;;;;8.55;2.90;;;;;;;;;;8275446;28;20039;-62
2023/09/28 08:15:08;;;;;;;7.50;2.90;;;;;;;;;;8278802;28;20036;-62
2023/09/28 08:19:10;;;;;;;4.68;2.33;;;;;;;;;;8278248;28;20331;-62
2023/09/28 08:23:11;;;;;;;12.50;2.70;;;;;;;;;;8281686;28;20029;-62
2023/09/28 08:27:11;;;;;;;7.47;2.53;;;;;;;;;;8278175;28;20343;-62
2023/09/28 08:31:12;;;;;;;10.73;2.83;;;;;;;;;;8278365;28;20045;-62
2023/09/28 08:35:12;;;;;;;7.10;2.90;;;;;;;;;;8282550;28;20021;-62
2023/09/28 08:39:12;;;;;;;9.30;2.93;;;;;;;;;;8283321;28;20020;-62
2023/09/28 08:43:14;;;;;;;9.02;2.80;;;;;;;;;;8280321;28;20274;-62
2023/09/28 08:47:19;;;;;;;7.57;2.97;;;;;;;;;;8281484;28;20393;-62
2023/09/28 08:51:19;;;;;;;10.45;3.00;;;;;;;;;;8283563;28;20032;-62
2023/09/28 08:55:21;;;;;;;12.00;2.77;;;;;;;;;;8284111;28;20885;-62
2023/09/28 08:59:23;;;;;;;5.70;2.67;;;;;;;;;;8280562;28;20103;-62
2023/09/28 09:03:24;;;;;;;5.93;2.60;;;;;;;;;;8255952;28;20679;-62
2023/09/28 09:07:24;;;;;;;10.00;2.40;;;;;;;;;;8246219;28;20147;-61
2023/09/28 09:11:25;;;;;;;5.38;2.75;;;;;;;;;;8248412;28;20037;-61
2023/09/28 09:15:25;;;;;;;9.98;3.03;;;;;;;;;;8245153;28;20200;-61
2023/09/28 09:19:28;;;;;;;7.45;2.67;;;;;;;;;;8248053;28;20550;-61
2023/09/28 09:23:30;;;;;;;5.55;2.40;;;;;;;;;;8246409;28;20506;-61
2023/09/28 09:27:31;;;;;;;5.85;2.60;;;;;;;;;;8246286;28;20052;-61
2023/09/28 09:31:33;;;;;;;13.57;2.70;;;;;;;;;;8246415;28;20132;-62
2023/09/28 09:35:33;;;;;;;9.82;2.25;;;;;;;;;;8248143;28;20017;-61
2023/09/28 09:39:34;;;;;;;4.28;2.63;;;;;;;;;;8248035;28;21705;-61
2023/09/28 09:43:35;;;;;;;5.53;2.50;;;;;;;;;;8245862;28;20131;-61
2023/09/28 09:47:35;;;;;;;4.05;2.40;;;;;;;;;;8247657;28;20143;-61
2023/09/28 09:51:37;;;;;;;4.88;2.65;;;;;;;;;;8247371;28;20577;-61
2023/09/28 09:55:40;;;;;;;4.57;2.58;;;;;;;;;;8247621;28;20534;-62
2023/09/28 09:59:40;;;;;;;;;;;;;;;;;;8246819;28;20017;-61
2023/09/28 10:03:42;;;;;;;4.93;2.10;;;;;;;;;;8246200;28;19939;-61
2023/09/28 10:07:43;;;;;;;3.97;2.00;;;;;;;;;;8248124;28;20056;-61
2023/09/28 10:11:46;;;;;;;3.67;2.08;;;;;;;;;;8247310;28;20037;-62
2023/09/28 10:15:48;;;;;;;3.40;1.90;;;;;;;;;;8245555;28;20037;-61
2023/09/28 10:19:50;;;;;;;3.28;1.92;;;;;;;;;;8246345;28;20407;-61
2023/09/28 10:23:52;;;;;;;3.55;2.30;;;;;;;;;;8249115;28;20491;-61
2023/09/28 10:27:56;;;;;;;4.47;2.40;;;;;;;;;;8244598;28;20025;-62
2023/09/28 10:31:57;;;;;;;2.10;1.92;;;;;;;;;;8243779;28;20076;-61
2023/09/28 10:36:13;;;;;;;3.28;2.17;;;;;;;;;;8246077;28;20014;-61
2023/09/28 10:40:15;;;;;;;2.75;1.90;;;;;;;;;;8246037;28;20029;-61
2023/09/28 10:44:17;;;;;;;2.97;2.03;;;;;;;;;;8248152;28;20033;-61
2023/09/28 10:48:17;;;;;;;2.63;1.75;;;;;;;;;;8244904;28;20037;-61
2023/09/28 10:52:17;;;;;;;1.80;1.65;;;;;;;;;;8246195;28;20474;-61
2023/09/28 10:56:17;;;;;;;3.00;1.90;;;;;;;;;;8242168;28;20897;-61
2023/09/28 11:00:18;;;;;;;5.03;1.80;;;;;;;;;;8243342;28;20489;-65
2023/09/28 11:04:18;;;;;;;2.17;1.80;;;;;;;;;;8247604;28;20045;-61
2023/09/28 11:08:21;;;;;;;4.80;2.25;;;;;;;;;;8247616;28;20028;-60
2023/09/28 11:12:21;;;;;;;4.18;2.05;;;;;;;;;;8246215;28;20124;-60
2023/09/28 11:16:22;;;;;;;3.50;1.90;;;;;;;;;;8242937;28;20057;-60
2023/09/28 11:20:22;;;;;;;8.68;2.20;;;;;;;;;;8245805;28;20030;-61
2023/09/28 11:24:22;;;;;;;5.80;1.70;;;;;;;;;;8246749;28;20017;-61
2023/09/28 11:28:22;;;;;;;4.93;1.58;;;;;;;;;;8240108;28;20688;-61
2023/09/28 11:32:23;;;;;;;3.58;1.90;;;;;;;;;;8234988;28;20037;-61
2023/09/28 11:36:24;;;;;;;3.08;1.75;;;;;;;;;;8240105;28;20014;-61
2023/09/28 11:40:25;;;;;;;4.25;1.80;;;;;;;;;;8235225;28;20112;-60
2023/09/28 11:44:26;;;;;;;2.25;1.98;;;;;;;;;;8229292;28;20141;-60
2023/09/28 11:48:26;;;;;;;5.70;1.80;;;;;;;;;;8247326;28;20079;-60
2023/09/28 11:52:27;;;;;;;4.50;1.65;;;;;;;;;;8251247;28;20021;-60
2023/09/28 11:56:27;;;;;;;2.10;1.85;;;;;;;;;;8233235;28;20423;-60
2023/09/28 12:00:28;;;;;;;3.13;1.85;;;;;;;;;;8237525;28;20514;-61
2023/09/28 12:04:28;;;;;;;4.10;1.90;;;;;;;;;;8236054;28;20033;-60
2023/09/28 12:08:29;;;;;;;3.13;1.98;;;;;;;;;;8241176;28;20465;-60
2023/09/28 12:12:29;;;;;;;6.15;1.70;;;;;;;;;;8241659;28;20085;-60
2023/09/28 12:16:29;;;;;;;2.88;1.73;;;;;;;;;;8252853;28;20040;-61
2023/09/28 12:20:31;;;;;;;6.68;1.88;;;;;;;;;;8263182;28;20120;-61
2023/09/28 12:24:31;;;;;;;4.95;2.00;;;;;;;;;;8273467;28;20078;-60
2023/09/28 12:28:31;;;;;;;5.47;2.08;;;;;;;;;;8268651;28;20469;-60
2023/09/28 12:32:32;;;;;;;3.33;1.90;;;;;;;;;;8271668;28;20117;-61
2023/09/28 12:36:32;;;;;;;2.28;1.83;;;;;;;;;;8274979;28;20017;-61
2023/09/28 12:40:33;;;;;;;4.30;1.70;;;;;;;;;;8270417;28;20022;-62
2023/09/28 12:44:33;;;;;;;2.38;1.77;;;;;;;;;;8271285;28;20018;-60
2023/09/28 12:48:34;;;;;;;4.95;1.75;;;;;;;;;;8274647;28;20049;-61
2023/09/28 12:52:34;;;;;;;3.42;1.95;;;;;;;;;;8275695;28;20025;-60
2023/09/28 12:56:34;;;;;;;2.92;1.50;;;;;;;;;;8269840;28;21104;-60
2023/09/28 13:00:36;;;;;;;3.92;1.90;;;;;;;;;;8270430;28;22713;-60
2023/09/28 13:04:37;;;;;;;2.58;1.98;;;;;;;;;;8284330;28;20638;-61
2023/09/28 13:08:37;;;;;;;1.98;1.77;;;;;;;;;;8281445;28;20033;-61
2023/09/28 13:12:38;;;;;;;2.13;1.70;;;;;;;;;;8273736;28;20563;-61
2023/09/28 13:16:38;;;;;;;2.67;1.80;;;;;;;;;;8279516;28;20325;-61
2023/09/28 13:20:42;;;;;;;2.20;1.73;;;;;;;;;;8277403;28;20025;-61
2023/09/28 13:24:42;;;;;;;2.72;1.85;;;;;;;;;;8278338;28;20080;-60
2023/09/28 13:28:43;;;;;;;3.25;1.58;;;;;;;;;;8277371;28;20058;-60
2023/09/28 13:32:44;;;;;;;1.87;1.77;;;;;;;;;;8276029;28;20539;-60
2023/09/28 13:36:44;;;;;;;3.83;1.77;;;;;;;;;;8281607;28;20555;-60
2023/09/28 13:40:45;;;;;;;3.03;1.60;;;;;;;;;;8270155;28;20029;-61
2023/09/28 13:44:46;;;;;;;3.53;1.75;;;;;;;;;;8276921;28;21006;-60
2023/09/28 13:48:46;;;;;;;2.28;1.70;;;;;;;;;;8278044;28;20131;-60
2023/09/28 13:52:46;;;;;;;3.60;1.65;;;;;;;;;;8279781;28;20512;-60
2023/09/28 13:56:47;;;;;;;2.92;1.70;;;;;;;;;;8271613;28;20119;-60
2023/09/28 14:00:50;;;;;;;3.28;1.77;;;;;;;;;;8273967;28;20064;-61
2023/09/28 14:04:50;;;;;;;4.70;1.73;;;;;;;;;;8272924;28;20025;-61
2023/09/28 14:08:53;;;;;;;3.63;1.80;;;;;;;;;;8276455;28;20720;-61
2023/09/28 14:12:55;;;;;;;1.88;1.70;;;;;;;;;;8277728;28;20352;-61
2023/09/28 14:16:56;;;;;;;1.70;1.50;;;;;;;;;;8273382;28;20029;-61
2023/09/28 14:20:56;;;;;;;2.63;1.63;;;;;;;;;;8282696;28;20029;-61
2023/09/28 14:24:56;;;;;;;3.67;1.60;;;;;;;;;;8270084;28;20025;-61
2023/09/28 14:28:57;;;;;;;3.17;1.83;;;;;;;;;;8283160;28;20302;-61
2023/09/28 14:32:57;;;;;;;3.80;1.70;;;;;;;;;;8270314;28;20041;-62
2023/09/28 14:36:57;;;;;;;1.90;1.70;;;;;;;;;;8264118;28;20276;-61
2023/09/28 14:40:58;;;;;;;3.17;1.73;;;;;;;;;;8277293;28;20028;-61
2023/09/28 14:44:59;;;;;;;3.00;2.13;;;;;;;;;;8281527;28;20034;-61
2023/09/28 14:48:59;;;;;;;2.10;1.75;;;;;;;;;;8278805;28;20049;-61
2023/09/28 14:52:59;;;;;;;6.37;1.77;;;;;;;;;;8281809;28;20368;-61
2023/09/28 14:57:00;;;;;;;2.00;1.80;;;;;;;;;;8274394;28;20675;-61
2023/09/28 15:01:00;;;;;;;5.23;2.03;;;;;;;;;;8274918;28;20045;-61
2023/09/28 15:05:00;;;;;;;6.88;2.05;;;;;;;;;;8279081;28;20509;-61
2023/09/28 15:09:00;;;;;;;3.30;2.00;;;;;;;;;;8275059;28;20531;-63
2023/09/28 15:13:01;;;;;;;2.77;2.00;;;;;;;;;;8275848;28;20329;-60
2023/09/28 15:17:01;;;;;;;3.05;1.70;;;;;;;;;;8274568;28;20117;-60
2023/09/28 15:21:04;;;;;;;4.30;1.92;;;;;;;;;;8273371;28;20456;-60
2023/09/28 15:25:05;;;;;;;2.13;1.90;;;;;;;;;;8273226;28;20039;-60
2023/09/28 15:29:08;;;;;;;3.35;1.85;;;;;;;;;;8275097;28;20690;-60
2023/09/28 15:33:08;;;;;;;2.67;2.15;;;;;;;;;;8274433;28;20045;-60
2023/09/28 15:37:09;;;;;;;7.30;1.90;;;;;;;;;;8274521;28;20036;-60
2023/09/28 15:41:29;;;;;;;3.60;1.70;;;;;;;;;;8274934;28;20813;-60
2023/09/28 15:45:29;;;;;;;2.45;1.80;;;;;;;;;;8275566;28;20466;-61
2023/09/28 15:49:29;;;;;;;3.80;2.00;;;;;;;;;;8275210;28;20076;-60
2023/09/28 15:53:30;;;;;;;4.07;2.00;;;;;;;;;;8275497;28;20976;-60
2023/09/28 15:57:30;;;;;;;2.08;1.88;;;;;;;;;;8273469;28;20021;-60
2023/09/28 16:01:30;;;;;;;3.67;1.85;;;;;;;;;;8273953;28;20830;-60
2023/09/28 16:05:30;;;;;;;7.33;2.10;;;;;;;;;;8276223;28;20191;-60
2023/09/28 16:09:31;;;;;;;7.25;1.80;;;;;;;;;;8275912;28;20309;-61
2023/09/28 16:13:31;;;;;;;3.50;1.93;;;;;;;;;;8269704;28;20104;-62
2023/09/28 16:17:32;;;;;;;3.00;1.77;;;;;;;;;;8271755;28;20283;-61
2023/09/28 16:21:32;;;;;;;3.97;2.03;;;;;;;;;;8269472;28;20381;-61
2023/09/28 16:25:32;;;;;;;1.70;1.60;;;;;;;;;;8270726;28;20029;-61
2023/09/28 16:29:32;;;;;;;3.80;2.00;;;;;;;;;;8288213;28;20121;-61
2023/09/28 16:33:33;;;;;;;2.97;2.08;;;;;;;;;;8275063;28;20029;-60
2023/09/28 16:37:33;;;;;;;3.83;2.13;;;;;;;;;;8277770;28;20025;-61
2023/09/28 16:41:33;;;;;;;2.72;1.92;;;;;;;;;;8274636;28;20024;-60
2023/09/28 16:45:33;;;;;;;5.88;1.98;;;;;;;;;;8270014;28;20329;-60
2023/09/28 16:49:34;;;;;;;4.60;2.00;;;;;;;;;;8268934;28;20463;-61
2023/09/28 16:53:34;;;;;;;6.88;1.88;;;;;;;;;;8270422;28;20043;-61
2023/09/28 16:57:34;;;;;;;3.17;1.77;;;;;;;;;;8266864;28;22844;-61
2023/09/28 17:01:34;;;;;;;2.80;2.08;;;;;;;;;;8266087;28;20095;-61
2023/09/28 17:05:35;;;;;;;4.30;1.83;;;;;;;;;;8270561;28;20036;-61
2023/09/28 17:09:35;;;;;;;5.93;1.80;;;;;;;;;;8272135;28;20087;-62
2023/09/28 17:13:35;;;;;;;4.22;1.88;;;;;;;;;;8271928;28;21106;-61
2023/09/28 17:17:35;;;;;;;2.43;2.20;;;;;;;;;;8273744;28;20920;-61
2023/09/28 17:21:35;;;;;;;3.65;1.98;;;;;;;;;;8273436;28;22770;-61
2023/09/28 17:25:36;;;;;;;3.33;2.10;;;;;;;;;;8274520;28;22383;-61
2023/09/28 17:29:36;;;;;;;2.63;1.87;;;;;;;;;;8271505;28;20397;-61
2023/09/28 17:33:36;;;;;;;1.98;1.70;;;;;;;;;;8271670;28;21327;-61
2023/09/28 17:37:37;;;;;;;2.58;2.28;;;;;;;;;;8272945;28;20529;-62
2023/09/28 17:41:37;;;;;;;3.97;2.00;;;;;;;;;;8277173;28;20024;-62
2023/09/28 17:45:37;;;;;;;4.50;2.20;;;;;;;;;;8270691;28;20311;-62
2023/09/28 17:49:38;;;;;;;3.80;2.35;;;;;;;;;;8269940;28;20509;-61
2023/09/28 17:53:38;;;;;;;2.72;2.10;;;;;;;;;;8275894;28;20077;-62
2023/09/28 17:57:39;;;;;;;6.07;2.30;;;;;;;;;;8269990;28;20416;-62
2023/09/28 18:01:39;;;;;;;3.63;2.10;;;;;;;;;;8263630;28;20160;-62
2023/09/28 18:05:39;;;;;;;2.80;2.13;;;;;;;;;;8273716;28;20140;-63
2023/09/28 18:09:41;;;;;;;4.07;1.95;;;;;;;;;;8272360;28;20442;-62
2023/09/28 18:13:41;;;;;;;3.53;2.17;;;;;;;;;;8270821;28;20318;-62
2023/09/28 18:17:41;;;;;;;4.50;2.20;;;;;;;;;;8260908;28;20504;-61
2023/09/28 18:21:42;;;;;;;3.88;2.17;;;;;;;;;;8263359;28;20028;-62
2023/09/28 18:25:48;;;;;;;6.15;2.25;;;;;;;;;;8261480;28;20021;-62
2023/09/28 18:29:49;;;;;;;3.58;2.00;;;;;;;;;;8259878;28;20416;-62
2023/09/28 18:33:49;;;;;;;2.33;2.10;;;;;;;;;;8262713;28;20053;-62
2023/09/28 18:37:49;;;;;;;2.70;2.00;;;;;;;;;;8277342;28;20026;-62
2023/09/28 18:41:50;;;;;;;5.83;2.07;;;;;;;;;;8276950;28;20029;-62
2023/09/28 18:45:56;;;;;;;4.13;2.07;;;;;;;;;;8275759;28;21045;-62
2023/09/28 18:49:56;;;;;;;5.03;2.13;;;;;;;;;;8276369;28;21007;-62
2023/09/28 18:53:58;;;;;;;5.07;2.10;;;;;;;;;;8278694;28;20029;-63
2023/09/28 18:57:59;;;;;;;3.57;2.30;;;;;;;;;;8275794;28;21030;-63
2023/09/28 19:01:59;;;;;;;2.80;2.00;;;;;;;;;;8274759;28;20045;-62
2023/09/28 19:06:00;;;;;;;3.13;2.10;;;;;;;;;;8277032;28;20032;-62
2023/09/28 19:10:00;;;;;;;3.00;2.05;;;;;;;;;;8273523;28;20390;-62
2023/09/28 19:14:01;;;;;;;3.10;1.83;;;;;;;;;;8278209;28;20033;-62
2023/09/28 19:18:02;;;;;;;3.85;2.13;;;;;;;;;;8274361;28;20103;-63
2023/09/28 19:22:03;;;;;;;2.97;1.92;;;;;;;;;;8279743;28;20112;-63
2023/09/28 19:26:05;;;;;;;2.55;2.30;;;;;;;;;;8273278;28;20021;-63
2023/09/28 19:30:11;;;;;;;4.57;1.88;;;;;;;;;;8276246;28;20025;-63
2023/09/28 19:34:11;;;;;;;3.17;2.20;;;;;;;;;;8276743;28;20032;-62
2023/09/28 19:38:12;;;;;;;4.78;2.10;;;;;;;;;;8278034;28;20086;-63
2023/09/28 19:42:12;;;;;;;5.03;2.30;;;;;;;;;;8274162;28;20025;-63
2023/09/28 19:46:22;;;;;;;2.87;2.30;;;;;;;;;;8273722;28;20091;-60
2023/09/28 19:50:22;;;;;;;5.60;2.10;;;;;;;;;;8276880;28;20040;-62
2023/09/28 19:54:22;;;;;;;3.87;2.30;;;;;;;;;;8275776;28;20030;-62
2023/09/28 19:58:23;;;;;;;4.35;2.13;;;;;;;;;;8270833;28;21027;-62
2023/09/28 20:02:23;;;;;;;2.13;1.93;;;;;;;;;;8276262;28;20125;-62
2023/09/28 20:06:25;;;;;;;2.83;2.40;;;;;;;;;;8278730;28;20041;-62
2023/09/28 20:10:26;;;;;;;4.85;2.58;;;;;;;;;;8281103;28;20036;-61
2023/09/28 20:14:26;;;;;;;2.73;2.07;;;;;;;;;;8282742;28;20025;-63
2023/09/28 20:18:28;;;;;;;3.15;2.38;;;;;;;;;;8285439;28;20638;-63
2023/09/28 20:22:30;;;;;;;2.22;1.90;;;;;;;;;;8280618;28;20025;-63
2023/09/28 20:26:30;;;;;;;3.53;2.50;;;;;;;;;;8280117;28;20048;-63
2023/09/28 20:30:30;;;;;;;4.15;2.28;;;;;;;;;;8281287;28;20740;-63
2023/09/28 20:34:31;;;;;;;2.83;2.10;;;;;;;;;;8286485;28;20021;-62
2023/09/28 20:38:31;;;;;;;3.13;2.17;;;;;;;;;;8285884;28;20736;-63
2023/09/28 20:42:31;;;;;;;2.33;2.13;;;;;;;;;;8284521;28;20029;-63
2023/09/28 20:46:32;;;;;;;3.42;2.20;;;;;;;;;;8280978;28;20276;-63
2023/09/28 20:50:34;;;;;;;3.13;2.25;;;;;;;;;;8282263;28;20120;-63
2023/09/28 20:54:35;;;;;;;3.20;2.40;;;;;;;;;;8284518;28;20033;-62
2023/09/28 20:58:35;;;;;;;6.00;2.47;;;;;;;;;;8283042;28;20111;-64
2023/09/28 21:02:36;;;;;;;4.80;2.35;;;;;;;;;;8280246;28;20083;-62
2023/09/28 21:06:36;;;;;;;4.45;2.30;;;;;;;;;;8285011;28;20025;-63
2023/09/28 21:10:36;;;;;;;3.53;2.30;;;;;;;;;;8282900;28;20040;-63
2023/09/28 21:14:36;;;;;;;2.88;2.22;;;;;;;;;;8282653;28;20151;-62
2023/09/28 21:18:37;;;;;;;4.65;2.50;;;;;;;;;;8284860;28;20037;-63
2023/09/28 21:22:37;;;;;;;4.55;2.33;;;;;;;;;;8282334;28;20120;-63
2023/09/28 21:26:37;;;;;;;3.07;2.00;;;;;;;;;;8287032;28;20134;-64
2023/09/28 21:30:37;;;;;;;3.08;2.33;;;;;;;;;;8277359;28;20272;-63
2023/09/28 21:34:37;;;;;;;2.10;1.90;;;;;;;;;;8281155;28;20029;-62
2023/09/28 21:38:38;;;;;;;2.10;1.90;;;;;;;;;;8286600;28;20177;-63
2023/09/28 21:42:39;;;;;;;3.45;2.10;;;;;;;;;;8286676;28;20029;-62
2023/09/28 21:46:39;;;;;;;2.78;2.25;;;;;;;;;;8284075;28;20037;-62
2023/09/28 21:50:40;;;;;;;3.23;2.27;;;;;;;;;;8284730;28;20029;-63
2023/09/28 21:54:40;;;;;;;2.78;2.08;;;;;;;;;;8286375;28;20283;-62
2023/09/28 21:58:41;;;;;;;4.22;2.40;;;;;;;;;;8287853;28;20029;-65
2023/09/28 22:02:41;;;;;;;3.90;2.30;;;;;;;;;;8282162;28;20037;-62
2023/09/28 22:06:42;;;;;;;2.20;2.00;;;;;;;;;;8285863;28;20052;-62
2023/09/28 22:10:42;;;;;;;3.17;2.40;;;;;;;;;;8284130;28;20040;-62
2023/09/28 22:14:42;;;;;;;3.03;2.40;;;;;;;;;;8287008;28;20075;-62
2023/09/28 22:18:42;;;;;;;4.70;2.63;;;;;;;;;;8286488;28;20030;-62
2023/09/28 22:22:46;;;;;;;3.77;2.50;;;;;;;;;;8285588;28;20064;-61
2023/09/28 22:26:46;;;;;;;4.47;2.50;;;;;;;;;;8286509;28;20295;-62
2023/09/28 22:30:47;;;;;;;5.50;2.50;;;;;;;;;;8282940;28;20069;-61
2023/09/28 22:34:47;;;;;;;3.13;2.05;;;;;;;;;;8284082;28;20280;-62
2023/09/28 22:38:48;;;;;;;3.97;2.70;;;;;;;;;;8286669;28;20381;-62
2023/09/28 22:42:48;;;;;;;6.95;2.55;;;;;;;;;;8282537;28;20568;-63
2023/09/28 22:46:48;;;;;;;6.18;2.53;;;;;;;;;;8284433;28;20037;-62
2023/09/28 22:50:48;;;;;;;3.10;2.07;;;;;;;;;;8284352;28;20314;-61
2023/09/28 22:54:49;;;;;;;2.45;2.25;;;;;;;;;;8286392;28;20423;-63
2023/09/28 22:58:49;;;;;;;5.27;2.40;;;;;;;;;;8286738;28;20511;-62
2023/09/28 23:02:49;;;;;;;6.20;2.60;;;;;;;;;;8279514;28;20327;-62
2023/09/28 23:06:50;;;;;;;3.75;2.30;;;;;;;;;;8283474;28;20028;-62
2023/09/28 23:10:51;;;;;;;4.57;2.30;;;;;;;;;;8285033;28;20034;-62
2023/09/28 23:14:51;;;;;;;2.90;2.05;;;;;;;;;;8285170;28;20029;-62
2023/09/28 23:18:51;;;;;;;5.30;2.35;;;;;;;;;;8280397;28;20151;-62
2023/09/28 23:22:52;;;;;;;3.28;2.42;;;;;;;;;;8282722;28;20109;-62
2023/09/28 23:26:52;;;;;;;4.38;2.20;;;;;;;;;;8282487;28;20441;-62
2023/09/28 23:30:55;;;;;;;3.42;2.38;;;;;;;;;;8282119;28;20111;-62
2023/09/28 23:34:55;;;;;;;4.45;2.67;;;;;;;;;;8286867;28;20037;-62
2023/09/28 23:38:57;;;;;;;9.20;2.93;;;;;;;;;;8284924;28;20096;-62
2023/09/28 23:42:57;;;;;;;3.67;2.30;;;;;;;;;;8288568;28;20950;-62
2023/09/28 23:46:57;;;;;;;4.20;2.38;;;;;;;;;;8291341;28;20042;-62
2023/09/28 23:50:57;;;;;;;4.47;2.50;;;;;;;;;;8288439;28;20037;-62
2023/09/28 23:54:58;;;;;;;2.80;2.50;;;;;;;;;;8292269;28;20716;-62
2023/09/28 23:58:58;;;;;;;4.30;2.80;;;;;;;;;;8292904;28;20044;-62
